Aérodrome :
LOGIN :

S'inscrire | Disclaimer

   EN    FR    IT 

 










Légende :    VFR   VFR Marginal   IFR   IFR Intensif   IFR Très Intensif
Visi : 
Plafond : 
>= 8 km
>= 3000ft
5 à 8 km
1000 à 3000 ft
1500m à 5 km
500 à 1000 ft
800 à 1500m
200 à 500 ft
< 800m
< 200 ft
Symboles :   Orages  Brouillard  Fortes neiges  Fortes précipitations  Vent > 20 kt
SIGMETs :   Divers  Orages  Givrage  Turbulence  Onde Orograph.  Cendres Volcan.






- Altitude de l'aérodrome : 25 ft
- Code IATA : QCY


EGXC - RAF Coningsby

DERNIER METAR :
  • 230550Z 18005KT 5000 -RA FEW030 BKN060 15/14 Q0999 TEMPO 9999 NSW RMK WHT TEMPO BLU

METARs EXPIRÉS :
  • 230450Z 18004KT 8000 RA BKN050 BKN070 15/13 Q1000 RMK BLU
  • 230350Z 20006KT CAVOK 15/13 Q1000 RMK BLU

TAF TAF EGXC
Valide du 23 à 06h jusqu'au 24 à 00h UTC


230433Z 2306/2324 20006KT 9999 BKN045
TEMPO 2306/2321 5000 SHRA BKN008 BKN015TCU
PROB30
TEMPO 2306/2308 SCT005
PROB40
TEMPO 2310/2321 4000 +SHRA
PROB30
TEMPO 2314/2321 3500 RADZ SCT004
PROB30
TEMPO 2321/2324 4000 RADZ SCT008



MET'MAP, la Météo Aéronautique d'un coup d'oeil ! - Copyright ORBIFLY Décembre 2007 - Disclaimer

ORBIFLY MET'MAP TEAM :

Programmation & Développement : Alexandra Zaïnal
Sur une idée originale de : Baudouin d'Aumeries
Assistance à la programmation : Marc-Olivier Méhu
Soutien technique & logistique : Manuel Goepfert

Contact : metmap@orbifly.com




SOURCES & CREDITS :

   NOAA